Terminal Aerodrome Forecast
Issued by NWS Jacksonville, FL

Home | Current Version | Previous Version | Text Only | Print | Product List | Glossary On
Versions: 1 2 3 4 5 6 7 8 9 10 11 12 13 14 15 16 17 18
773
FTUS42 KJAX 260944 AAB
TAFSSI
TAF AMD
KSSI 260944Z 2610/2706 32003KT P6SM -RA SCT030 BKN050 OVC200
     FM261600 01005KT P6SM VCTS SCT030CB BKN040 OVC200
      TEMPO 2617/2621 VRB15G25KT 3SM +TSRA BR SCT010 BKN020CB OVC040
     FM270000 08006KT P6SM VCSH SCT040 BKN100 OVC250=

USA.gov is the U.S. government's official web portal to all federal, state and local government web resources and services.